VTSP/HKT METAR and TAF weather

Enter ICAO airport designator
Station Type Date Time Source
VTSP METAR 2019/08/26 07:30 UTC NOAA

VTSP 260730Z 28015KT 240V300 9999 SCT020 SCT100 30/23 Q1010 NOSIG


Station Type Date Time Source
VTSP Decoded METAR 2019/08/26 07:30 UTC NOAA

Station name not available
Aug 26, 2019 - 03:30 AM EDT / 2019.08.26 0730 UTC
Wind: from the W (280 degrees) at 17 MPH (15 KT) (direction variable):0
Visibility: greater than 7 mile(s):0
Sky conditions: partly cloudy
Temperature: 86 F (30 C)
Heat index: 93.4 F (34.1 C):1
Dew Point: 73 F (23 C)
Relative Humidity: 66%
Pressure (altimeter): 29.83 in. Hg (1010 hPa)
ob: VTSP 260730Z 28015KT 240V300 9999 SCT020 SCT100 30/23 Q1010 NOSIG
cycle: 7

Station Type Date Time Source
VTSP TAF 2019/08/26 06:39 UTC NOAA

TAF VTSP 260500Z 2606/2712 26012KT 9999 FEW020 BKN100
TEMPO 2606/2612 26015G30KT 5000 TSRA FEW018CB SCT020 BKN100
TEMPO 2622/2704 26015G30KT 5000 TSRA FEW018CB SCT020 BKN100

Example: see airport list